National Weather Service Raw Text Product

Displaying AFOS PIL: TAFMCW Received: 2017-10-13 05:35 UTC


564 
FTUS43 KDMX 130535
TAFMCW
TAF
KMCW 130535Z 1306/1406 19007KT P6SM SCT010 BKN050
      TEMPO 1306/1308 BKN010
     FM131500 35007KT P6SM BKN022
     FM132000 01009KT P6SM VCSH BKN035=